sensor_id;sensor_type;location;lat;lon;timestamp;temperature;humidity
33476;DHT22;19814;48.224;11.422;2023-04-06T00:02:24;0.40;92.10
33476;DHT22;19814;48.224;11.422;2023-04-06T00:04:49;0.40;92.20
33476;DHT22;19814;48.224;11.422;2023-04-06T00:07:15;0.40;92.40
33476;DHT22;19814;48.224;11.422;2023-04-06T00:09:40;0.40;92.70
33476;DHT22;19814;48.224;11.422;2023-04-06T00:12:06;0.30;93.00
33476;DHT22;19814;48.224;11.422;2023-04-06T00:14:32;0.30;92.60
33476;DHT22;19814;48.224;11.422;2023-04-06T00:16:57;0.30;92.60
33476;DHT22;19814;48.224;11.422;2023-04-06T00:19:23;0.20;92.10
33476;DHT22;19814;48.224;11.422;2023-04-06T00:21:48;0.20;92.40
33476;DHT22;19814;48.224;11.422;2023-04-06T00:24:14;0.20;92.20
33476;DHT22;19814;48.224;11.422;2023-04-06T00:26:39;0.20;92.40
33476;DHT22;19814;48.224;11.422;2023-04-06T00:29:05;0.20;92.30
33476;DHT22;19814;48.224;11.422;2023-04-06T00:31:30;0.20;92.40
33476;DHT22;19814;48.224;11.422;2023-04-06T00:33:58;0.20;93.00
33476;DHT22;19814;48.224;11.422;2023-04-06T00:36:23;0.10;92.90
33476;DHT22;19814;48.224;11.422;2023-04-06T00:38:49;0.10;92.90
33476;DHT22;19814;48.224;11.422;2023-04-06T00:41:14;0.10;93.20
33476;DHT22;19814;48.224;11.422;2023-04-06T00:43:40;0.10;93.20
33476;DHT22;19814;48.224;11.422;2023-04-06T00:46:06;0.00;93.00
33476;DHT22;19814;48.224;11.422;2023-04-06T00:48:31;0.00;93.30
33476;DHT22;19814;48.224;11.422;2023-04-06T00:50:58;0.00;93.50
33476;DHT22;19814;48.224;11.422;2023-04-06T00:53:24;0.00;93.50
33476;DHT22;19814;48.224;11.422;2023-04-06T00:55:50;-0.10;93.50
33476;DHT22;19814;48.224;11.422;2023-04-06T00:58:15;-0.10;93.40
33476;DHT22;19814;48.224;11.422;2023-04-06T01:00:41;-0.20;93.50
33476;DHT22;19814;48.224;11.422;2023-04-06T01:03:08;-0.20;94.00
33476;DHT22;19814;48.224;11.422;2023-04-06T01:05:34;-0.20;94.10
33476;DHT22;19814;48.224;11.422;2023-04-06T01:08:05;-0.30;94.90
33476;DHT22;19814;48.224;11.422;2023-04-06T01:10:30;-0.30;94.90
33476;DHT22;19814;48.224;11.422;2023-04-06T01:12:56;-0.30;96.00
33476;DHT22;19814;48.224;11.422;2023-04-06T01:15:22;-0.30;96.30
33476;DHT22;19814;48.224;11.422;2023-04-06T01:17:48;-0.30;96.20
33476;DHT22;19814;48.224;11.422;2023-04-06T01:20:14;-0.30;96.60
33476;DHT22;19814;48.224;11.422;2023-04-06T01:22:39;-0.30;96.70
33476;DHT22;19814;48.224;11.422;2023-04-06T01:25:05;-0.30;97.00
33476;DHT22;19814;48.224;11.422;2023-04-06T01:27:31;-0.30;96.20
33476;DHT22;19814;48.224;11.422;2023-04-06T01:29:57;-0.30;95.60
33476;DHT22;19814;48.224;11.422;2023-04-06T01:32:22;-0.20;95.90
33476;DHT22;19814;48.224;11.422;2023-04-06T01:34:48;-0.30;96.00
33476;DHT22;19814;48.224;11.422;2023-04-06T01:37:13;-0.30;96.00
33476;DHT22;19814;48.224;11.422;2023-04-06T01:39:39;-0.30;96.30
33476;DHT22;19814;48.224;11.422;2023-04-06T01:42:04;-0.30;96.60
33476;DHT22;19814;48.224;11.422;2023-04-06T01:44:30;-0.30;96.90
33476;DHT22;19814;48.224;11.422;2023-04-06T01:46:56;-0.30;97.30
33476;DHT22;19814;48.224;11.422;2023-04-06T01:49:22;-0.30;97.40
33476;DHT22;19814;48.224;11.422;2023-04-06T01:51:47;-0.30;97.40
33476;DHT22;19814;48.224;11.422;2023-04-06T01:54:13;-0.30;96.80
33476;DHT22;19814;48.224;11.422;2023-04-06T01:56:38;-0.40;96.80
33476;DHT22;19814;48.224;11.422;2023-04-06T01:59:04;-0.50;96.60
33476;DHT22;19814;48.224;11.422;2023-04-06T02:01:29;-0.50;96.70
33476;DHT22;19814;48.224;11.422;2023-04-06T02:03:55;-0.50;97.20
33476;DHT22;19814;48.224;11.422;2023-04-06T02:06:21;-0.60;97.10
33476;DHT22;19814;48.224;11.422;2023-04-06T02:08:46;-0.50;97.20
33476;DHT22;19814;48.224;11.422;2023-04-06T02:11:12;-0.60;98.00
33476;DHT22;19814;48.224;11.422;2023-04-06T02:13:37;-0.50;98.40
33476;DHT22;19814;48.224;11.422;2023-04-06T02:16:03;-0.50;98.20
33476;DHT22;19814;48.224;11.422;2023-04-06T02:18:30;-0.60;97.60
33476;DHT22;19814;48.224;11.422;2023-04-06T02:20:56;-0.50;97.70
33476;DHT22;19814;48.224;11.422;2023-04-06T02:23:21;-0.50;97.60
33476;DHT22;19814;48.224;11.422;2023-04-06T02:25:47;-0.60;97.60
33476;DHT22;19814;48.224;11.422;2023-04-06T02:28:12;-0.70;97.30
33476;DHT22;19814;48.224;11.422;2023-04-06T02:30:38;-0.70;97.30
33476;DHT22;19814;48.224;11.422;2023-04-06T02:33:04;-0.70;97.10
33476;DHT22;19814;48.224;11.422;2023-04-06T02:35:30;-0.70;97.30
33476;DHT22;19814;48.224;11.422;2023-04-06T02:37:56;-0.80;97.40
33476;DHT22;19814;48.224;11.422;2023-04-06T02:40:22;-0.80;97.80
33476;DHT22;19814;48.224;11.422;2023-04-06T02:42:47;-0.90;97.90
33476;DHT22;19814;48.224;11.422;2023-04-06T02:45:13;-0.80;97.30
33476;DHT22;19814;48.224;11.422;2023-04-06T02:47:39;-0.90;97.10
33476;DHT22;19814;48.224;11.422;2023-04-06T02:50:05;-0.90;96.80
33476;DHT22;19814;48.224;11.422;2023-04-06T02:52:31;-0.90;97.00
33476;DHT22;19814;48.224;11.422;2023-04-06T02:54:56;-0.90;97.20
33476;DHT22;19814;48.224;11.422;2023-04-06T02:57:22;-1.00;97.50
33476;DHT22;19814;48.224;11.422;2023-04-06T02:59:47;-1.00;97.60
33476;DHT22;19814;48.224;11.422;2023-04-06T03:02:13;-1.00;97.60
33476;DHT22;19814;48.224;11.422;2023-04-06T03:04:38;-1.00;97.60
33476;DHT22;19814;48.224;11.422;2023-04-06T03:07:04;-1.00;97.90
33476;DHT22;19814;48.224;11.422;2023-04-06T03:09:30;-1.00;98.30
33476;DHT22;19814;48.224;11.422;2023-04-06T03:11:55;-1.10;98.50
33476;DHT22;19814;48.224;11.422;2023-04-06T03:14:21;-1.10;99.20
33476;DHT22;19814;48.224;11.422;2023-04-06T03:16:48;-1.10;99.10
33476;DHT22;19814;48.224;11.422;2023-04-06T03:19:14;-1.10;99.30
33476;DHT22;19814;48.224;11.422;2023-04-06T03:21:39;-1.00;99.40
33476;DHT22;19814;48.224;11.422;2023-04-06T03:24:05;-1.00;99.20
33476;DHT22;19814;48.224;11.422;2023-04-06T03:26:31;-1.00;99.40
33476;DHT22;19814;48.224;11.422;2023-04-06T03:28:56;-1.10;99.20
33476;DHT22;19814;48.224;11.422;2023-04-06T03:31:22;-1.10;99.20
33476;DHT22;19814;48.224;11.422;2023-04-06T03:33:47;-1.20;99.10
33476;DHT22;19814;48.224;11.422;2023-04-06T03:36:13;-1.10;99.30
33476;DHT22;19814;48.224;11.422;2023-04-06T03:38:38;-1.20;99.30
33476;DHT22;19814;48.224;11.422;2023-04-06T03:41:04;-1.20;99.20
33476;DHT22;19814;48.224;11.422;2023-04-06T03:43:29;-1.20;99.20
33476;DHT22;19814;48.224;11.422;2023-04-06T03:45:55;-1.20;99.40
33476;DHT22;19814;48.224;11.422;2023-04-06T03:48:20;-1.20;99.90
33476;DHT22;19814;48.224;11.422;2023-04-06T03:50:47;-1.20;99.60
33476;DHT22;19814;48.224;11.422;2023-04-06T03:53:12;-1.20;99.60
33476;DHT22;19814;48.224;11.422;2023-04-06T03:55:38;-1.20;99.80
33476;DHT22;19814;48.224;11.422;2023-04-06T03:58:03;-1.20;99.90
33476;DHT22;19814;48.224;11.422;2023-04-06T04:00:29;-1.20;99.90
33476;DHT22;19814;48.224;11.422;2023-04-06T04:02:55;-1.20;99.90
33476;DHT22;19814;48.224;11.422;2023-04-06T04:05:20;-1.30;99.90
33476;DHT22;19814;48.224;11.422;2023-04-06T04:07:50;-1.30;99.90
33476;DHT22;19814;48.224;11.422;2023-04-06T04:10:16;-1.30;99.90
33476;DHT22;19814;48.224;11.422;2023-04-06T04:12:42;-1.30;99.90
33476;DHT22;19814;48.224;11.422;2023-04-06T04:15:08;-1.30;99.90
33476;DHT22;19814;48.224;11.422;2023-04-06T04:17:33;-1.30;99.90
33476;DHT22;19814;48.224;11.422;2023-04-06T04:19:59;-1.40;99.90
33476;DHT22;19814;48.224;11.422;2023-04-06T04:22:24;-1.40;99.90
33476;DHT22;19814;48.224;11.422;2023-04-06T04:24:50;-1.40;99.90
33476;DHT22;19814;48.224;11.422;2023-04-06T04:27:15;-1.40;99.90
33476;DHT22;19814;48.224;11.422;2023-04-06T04:29:41;-1.40;99.90
33476;DHT22;19814;48.224;11.422;2023-04-06T04:32:08;-1.40;99.90
33476;DHT22;19814;48.224;11.422;2023-04-06T04:34:34;-1.40;99.90
33476;DHT22;19814;48.224;11.422;2023-04-06T04:37:00;-1.40;99.90
33476;DHT22;19814;48.224;11.422;2023-04-06T04:39:25;-1.40;99.90
33476;DHT22;19814;48.224;11.422;2023-04-06T04:41:51;-1.50;99.90
33476;DHT22;19814;48.224;11.422;2023-04-06T04:44:16;-1.40;99.90
33476;DHT22;19814;48.224;11.422;2023-04-06T04:46:42;-1.40;99.90
33476;DHT22;19814;48.224;11.422;2023-04-06T04:49:07;-1.40;99.90
33476;DHT22;19814;48.224;11.422;2023-04-06T04:51:33;-1.40;99.90
33476;DHT22;19814;48.224;11.422;2023-04-06T04:53:59;-1.50;99.90
33476;DHT22;19814;48.224;11.422;2023-04-06T04:56:24;-1.50;99.90
33476;DHT22;19814;48.224;11.422;2023-04-06T04:58:50;-1.50;99.90
33476;DHT22;19814;48.224;11.422;2023-04-06T05:01:16;-1.40;99.90
33476;DHT22;19814;48.224;11.422;2023-04-06T05:03:41;-1.40;99.90
33476;DHT22;19814;48.224;11.422;2023-04-06T05:06:07;-1.40;99.90
33476;DHT22;19814;48.224;11.422;2023-04-06T05:08:33;-1.40;99.90
33476;DHT22;19814;48.224;11.422;2023-04-06T05:10:58;-1.30;99.90
33476;DHT22;19814;48.224;11.422;2023-04-06T05:13:24;-1.30;99.90
33476;DHT22;19814;48.224;11.422;2023-04-06T05:15:50;-1.20;99.90
33476;DHT22;19814;48.224;11.422;2023-04-06T05:18:15;-1.10;99.90
33476;DHT22;19814;48.224;11.422;2023-04-06T05:20:42;-1.10;99.90
33476;DHT22;19814;48.224;11.422;2023-04-06T05:23:08;-1.10;99.90
33476;DHT22;19814;48.224;11.422;2023-04-06T05:25:33;-1.00;99.90
33476;DHT22;19814;48.224;11.422;2023-04-06T05:27:59;-0.90;99.90
33476;DHT22;19814;48.224;11.422;2023-04-06T05:30:25;-0.80;99.90
33476;DHT22;19814;48.224;11.422;2023-04-06T05:32:52;-0.80;99.90
33476;DHT22;19814;48.224;11.422;2023-04-06T05:35:17;-0.80;99.90
33476;DHT22;19814;48.224;11.422;2023-04-06T05:37:43;-0.70;99.90
33476;DHT22;19814;48.224;11.422;2023-04-06T05:40:09;-0.60;99.90
33476;DHT22;19814;48.224;11.422;2023-04-06T05:42:39;-0.60;99.90
33476;DHT22;19814;48.224;11.422;2023-04-06T05:45:05;-0.50;99.90
33476;DHT22;19814;48.224;11.422;2023-04-06T05:47:31;-0.50;99.90
33476;DHT22;19814;48.224;11.422;2023-04-06T05:49:57;-0.40;99.90
33476;DHT22;19814;48.224;11.422;2023-04-06T05:52:22;-0.30;99.90
33476;DHT22;19814;48.224;11.422;2023-04-06T05:54:48;-0.20;99.90
33476;DHT22;19814;48.224;11.422;2023-04-06T05:57:14;-0.10;99.90
33476;DHT22;19814;48.224;11.422;2023-04-06T05:59:39;0.00;99.90
33476;DHT22;19814;48.224;11.422;2023-04-06T06:02:05;0.20;99.60
33476;DHT22;19814;48.224;11.422;2023-04-06T06:04:30;0.30;99.30
33476;DHT22;19814;48.224;11.422;2023-04-06T06:06:56;0.40;99.30
33476;DHT22;19814;48.224;11.422;2023-04-06T06:09:22;0.50;99.50
33476;DHT22;19814;48.224;11.422;2023-04-06T06:11:48;0.60;99.20
33476;DHT22;19814;48.224;11.422;2023-04-06T06:14:14;0.80;98.90
33476;DHT22;19814;48.224;11.422;2023-04-06T06:16:40;1.00;98.80
33476;DHT22;19814;48.224;11.422;2023-04-06T06:19:06;1.30;98.80
33476;DHT22;19814;48.224;11.422;2023-04-06T06:21:31;1.70;98.20
33476;DHT22;19814;48.224;11.422;2023-04-06T06:23:57;2.00;97.90
33476;DHT22;19814;48.224;11.422;2023-04-06T06:26:23;2.20;97.40
33476;DHT22;19814;48.224;11.422;2023-04-06T06:28:48;2.40;97.40
33476;DHT22;19814;48.224;11.422;2023-04-06T06:31:14;2.60;97.20
33476;DHT22;19814;48.224;11.422;2023-04-06T06:33:39;2.90;97.20
33476;DHT22;19814;48.224;11.422;2023-04-06T06:36:05;3.30;97.10
33476;DHT22;19814;48.224;11.422;2023-04-06T06:38:30;3.70;96.80
33476;DHT22;19814;48.224;11.422;2023-04-06T06:40:56;3.90;96.20
33476;DHT22;19814;48.224;11.422;2023-04-06T06:43:21;4.00;95.60
33476;DHT22;19814;48.224;11.422;2023-04-06T06:45:47;4.10;96.10
33476;DHT22;19814;48.224;11.422;2023-04-06T06:48:12;4.70;94.50
33476;DHT22;19814;48.224;11.422;2023-04-06T06:50:38;5.10;93.10
33476;DHT22;19814;48.224;11.422;2023-04-06T06:53:04;5.40;93.20
33476;DHT22;19814;48.224;11.422;2023-04-06T06:55:29;5.60;92.80
33476;DHT22;19814;48.224;11.422;2023-04-06T06:57:55;5.70;92.80
33476;DHT22;19814;48.224;11.422;2023-04-06T07:00:20;6.00;92.60
33476;DHT22;19814;48.224;11.422;2023-04-06T07:02:47;6.30;91.80
33476;DHT22;19814;48.224;11.422;2023-04-06T07:05:13;7.10;90.70
33476;DHT22;19814;48.224;11.422;2023-04-06T07:07:38;7.60;89.20
33476;DHT22;19814;48.224;11.422;2023-04-06T07:10:04;7.70;87.60
33476;DHT22;19814;48.224;11.422;2023-04-06T07:12:30;7.20;89.00
33476;DHT22;19814;48.224;11.422;2023-04-06T07:14:55;7.00;89.80
33476;DHT22;19814;48.224;11.422;2023-04-06T07:17:21;7.10;89.70
33476;DHT22;19814;48.224;11.422;2023-04-06T07:19:47;7.10;90.00
33476;DHT22;19814;48.224;11.422;2023-04-06T07:22:12;7.20;88.90
33476;DHT22;19814;48.224;11.422;2023-04-06T07:24:38;7.20;88.50
33476;DHT22;19814;48.224;11.422;2023-04-06T07:27:03;7.00;89.30
33476;DHT22;19814;48.224;11.422;2023-04-06T07:29:29;7.30;88.90
33476;DHT22;19814;48.224;11.422;2023-04-06T07:31:55;8.10;86.90
33476;DHT22;19814;48.224;11.422;2023-04-06T07:34:20;8.70;85.40
33476;DHT22;19814;48.224;11.422;2023-04-06T07:36:46;9.20;82.20
33476;DHT22;19814;48.224;11.422;2023-04-06T07:39:12;9.20;84.10
33476;DHT22;19814;48.224;11.422;2023-04-06T07:41:37;9.30;84.00
33476;DHT22;19814;48.224;11.422;2023-04-06T07:44:03;9.80;80.90
33476;DHT22;19814;48.224;11.422;2023-04-06T07:46:29;10.50;76.40
33476;DHT22;19814;48.224;11.422;2023-04-06T07:48:55;10.80;75.20
33476;DHT22;19814;48.224;11.422;2023-04-06T07:51:21;10.50;76.70
33476;DHT22;19814;48.224;11.422;2023-04-06T07:53:46;10.70;78.00
33476;DHT22;19814;48.224;11.422;2023-04-06T07:56:12;11.20;76.50
33476;DHT22;19814;48.224;11.422;2023-04-06T07:58:38;11.40;75.10
33476;DHT22;19814;48.224;11.422;2023-04-06T08:01:03;11.70;72.60
33476;DHT22;19814;48.224;11.422;2023-04-06T08:03:29;11.70;72.20
33476;DHT22;19814;48.224;11.422;2023-04-06T08:05:55;11.90;73.70
33476;DHT22;19814;48.224;11.422;2023-04-06T08:08:21;12.20;73.80
33476;DHT22;19814;48.224;11.422;2023-04-06T08:10:48;12.30;72.90
33476;DHT22;19814;48.224;11.422;2023-04-06T08:13:14;12.70;73.30
33476;DHT22;19814;48.224;11.422;2023-04-06T08:15:40;13.30;69.20
33476;DHT22;19814;48.224;11.422;2023-04-06T08:18:06;13.60;66.30
33476;DHT22;19814;48.224;11.422;2023-04-06T08:20:31;13.70;62.40
33476;DHT22;19814;48.224;11.422;2023-04-06T08:22:57;13.50;62.40
33476;DHT22;19814;48.224;11.422;2023-04-06T08:25:22;13.50;62.70
33476;DHT22;19814;48.224;11.422;2023-04-06T08:27:48;13.70;62.90
33476;DHT22;19814;48.224;11.422;2023-04-06T08:30:14;14.30;63.60
33476;DHT22;19814;48.224;11.422;2023-04-06T08:32:41;14.20;64.00
33476;DHT22;19814;48.224;11.422;2023-04-06T08:35:07;14.60;59.90
33476;DHT22;19814;48.224;11.422;2023-04-06T08:37:33;14.60;59.50
33476;DHT22;19814;48.224;11.422;2023-04-06T08:39:58;16.10;54.10
33476;DHT22;19814;48.224;11.422;2023-04-06T08:42:25;17.10;51.40
33476;DHT22;19814;48.224;11.422;2023-04-06T08:44:51;17.40;50.10
33476;DHT22;19814;48.224;11.422;2023-04-06T08:47:18;16.90;49.00
33476;DHT22;19814;48.224;11.422;2023-04-06T08:49:44;18.30;45.10
33476;DHT22;19814;48.224;11.422;2023-04-06T08:52:10;18.80;43.80
33476;DHT22;19814;48.224;11.422;2023-04-06T08:54:37;17.70;45.90
33476;DHT22;19814;48.224;11.422;2023-04-06T08:57:02;16.60;47.10
33476;DHT22;19814;48.224;11.422;2023-04-06T08:59:28;16.90;46.30
33476;DHT22;19814;48.224;11.422;2023-04-06T09:01:55;17.40;44.90
33476;DHT22;19814;48.224;11.422;2023-04-06T09:04:21;18.10;42.30
33476;DHT22;19814;48.224;11.422;2023-04-06T09:06:46;19.60;38.90
33476;DHT22;19814;48.224;11.422;2023-04-06T09:09:12;19.80;38.90
33476;DHT22;19814;48.224;11.422;2023-04-06T09:14:09;20.50;37.10
33476;DHT22;19814;48.224;11.422;2023-04-06T09:16:42;20.30;38.80
33476;DHT22;19814;48.224;11.422;2023-04-06T09:19:08;20.40;35.80
33476;DHT22;19814;48.224;11.422;2023-04-06T09:21:34;20.70;36.30
33476;DHT22;19814;48.224;11.422;2023-04-06T09:24:00;21.10;35.00
33476;DHT22;19814;48.224;11.422;2023-04-06T09:26:26;20.60;34.60
33476;DHT22;19814;48.224;11.422;2023-04-06T09:28:57;20.20;35.10
33476;DHT22;19814;48.224;11.422;2023-04-06T09:31:28;19.30;36.70
33476;DHT22;19814;48.224;11.422;2023-04-06T09:33:54;20.60;34.60
33476;DHT22;19814;48.224;11.422;2023-04-06T09:36:20;20.70;34.70
33476;DHT22;19814;48.224;11.422;2023-04-06T09:41:26;21.10;34.10
33476;DHT22;19814;48.224;11.422;2023-04-06T09:44:01;20.70;34.60
33476;DHT22;19814;48.224;11.422;2023-04-06T09:46:27;20.90;35.30
33476;DHT22;19814;48.224;11.422;2023-04-06T09:48:57;21.10;32.70
33476;DHT22;19814;48.224;11.422;2023-04-06T09:51:24;21.30;35.80
33476;DHT22;19814;48.224;11.422;2023-04-06T09:53:52;22.10;33.10
33476;DHT22;19814;48.224;11.422;2023-04-06T09:56:23;22.00;33.80
33476;DHT22;19814;48.224;11.422;2023-04-06T09:58:55;22.40;33.60
33476;DHT22;19814;48.224;11.422;2023-04-06T10:01:22;23.30;33.00
33476;DHT22;19814;48.224;11.422;2023-04-06T10:06:21;23.40;30.50
33476;DHT22;19814;48.224;11.422;2023-04-06T10:08:50;21.60;32.30
33476;DHT22;19814;48.224;11.422;2023-04-06T10:11:17;20.80;34.30
33476;DHT22;19814;48.224;11.422;2023-04-06T10:13:44;21.80;33.30
33476;DHT22;19814;48.224;11.422;2023-04-06T10:16:13;22.80;31.50
33476;DHT22;19814;48.224;11.422;2023-04-06T10:18:42;21.10;32.50
33476;DHT22;19814;48.224;11.422;2023-04-06T10:21:12;19.20;33.90
33476;DHT22;19814;48.224;11.422;2023-04-06T10:23:55;17.30;36.40
33476;DHT22;19814;48.224;11.422;2023-04-06T10:26:23;16.40;37.80
33476;DHT22;19814;48.224;11.422;2023-04-06T10:28:49;17.80;36.40
33476;DHT22;19814;48.224;11.422;2023-04-06T10:31:15;19.70;36.70
33476;DHT22;19814;48.224;11.422;2023-04-06T10:34:17;22.10;33.40
33476;DHT22;19814;48.224;11.422;2023-04-06T10:37:16;23.60;30.80
33476;DHT22;19814;48.224;11.422;2023-04-06T10:39:51;24.40;31.60
33476;DHT22;19814;48.224;11.422;2023-04-06T10:42:24;23.20;31.80
33476;DHT22;19814;48.224;11.422;2023-04-06T10:44:50;23.60;31.50
33476;DHT22;19814;48.224;11.422;2023-04-06T10:47:17;23.90;31.30
33476;DHT22;19814;48.224;11.422;2023-04-06T10:49:43;22.10;33.00
33476;DHT22;19814;48.224;11.422;2023-04-06T10:52:09;21.40;33.00
33476;DHT22;19814;48.224;11.422;2023-04-06T10:54:41;21.40;32.40
33476;DHT22;19814;48.224;11.422;2023-04-06T10:57:06;22.70;32.30
33476;DHT22;19814;48.224;11.422;2023-04-06T10:59:32;23.00;30.40
33476;DHT22;19814;48.224;11.422;2023-04-06T11:01:57;23.60;29.70
33476;DHT22;19814;48.224;11.422;2023-04-06T11:04:25;23.60;30.00
33476;DHT22;19814;48.224;11.422;2023-04-06T11:06:50;24.70;29.80
33476;DHT22;19814;48.224;11.422;2023-04-06T11:09:29;26.30;29.00
33476;DHT22;19814;48.224;11.422;2023-04-06T11:11:57;26.60;29.20
33476;DHT22;19814;48.224;11.422;2023-04-06T11:14:22;26.50;28.40
33476;DHT22;19814;48.224;11.422;2023-04-06T11:16:51;25.70;28.20
33476;DHT22;19814;48.224;11.422;2023-04-06T11:19:17;26.70;26.70
33476;DHT22;19814;48.224;11.422;2023-04-06T11:21:47;26.00;28.60
33476;DHT22;19814;48.224;11.422;2023-04-06T11:24:18;25.20;29.20
33476;DHT22;19814;48.224;11.422;2023-04-06T11:26:47;22.30;29.50
33476;DHT22;19814;48.224;11.422;2023-04-06T11:29:16;20.80;32.70
33476;DHT22;19814;48.224;11.422;2023-04-06T11:31:50;19.10;32.60
33476;DHT22;19814;48.224;11.422;2023-04-06T11:34:21;17.60;34.00
33476;DHT22;19814;48.224;11.422;2023-04-06T11:36:49;17.00;37.20
33476;DHT22;19814;48.224;11.422;2023-04-06T11:39:21;16.70;37.00
33476;DHT22;19814;48.224;11.422;2023-04-06T11:41:56;16.50;36.30
33476;DHT22;19814;48.224;11.422;2023-04-06T11:46:54;19.00;34.60
33476;DHT22;19814;48.224;11.422;2023-04-06T11:49:21;21.10;34.20
33476;DHT22;19814;48.224;11.422;2023-04-06T11:51:47;21.50;33.20
33476;DHT22;19814;48.224;11.422;2023-04-06T11:54:12;20.50;34.80
33476;DHT22;19814;48.224;11.422;2023-04-06T11:56:38;18.60;35.50
33476;DHT22;19814;48.224;11.422;2023-04-06T11:59:04;18.70;37.70
33476;DHT22;19814;48.224;11.422;2023-04-06T12:01:29;20.00;34.40
33476;DHT22;19814;48.224;11.422;2023-04-06T12:03:55;20.60;33.00
33476;DHT22;19814;48.224;11.422;2023-04-06T12:06:21;19.50;33.50
33476;DHT22;19814;48.224;11.422;2023-04-06T12:08:47;17.90;36.50
33476;DHT22;19814;48.224;11.422;2023-04-06T12:11:13;16.70;37.80
33476;DHT22;19814;48.224;11.422;2023-04-06T12:13:38;15.80;39.60
33476;DHT22;19814;48.224;11.422;2023-04-06T12:16:04;15.50;40.00
33476;DHT22;19814;48.224;11.422;2023-04-06T12:18:31;16.00;38.10
33476;DHT22;19814;48.224;11.422;2023-04-06T12:20:57;16.10;37.20
33476;DHT22;19814;48.224;11.422;2023-04-06T12:23:22;16.20;37.70
33476;DHT22;19814;48.224;11.422;2023-04-06T12:25:48;17.80;36.60
33476;DHT22;19814;48.224;11.422;2023-04-06T12:28:13;20.10;34.70
33476;DHT22;19814;48.224;11.422;2023-04-06T12:30:39;20.40;32.50
33476;DHT22;19814;48.224;11.422;2023-04-06T12:33:06;19.80;32.30
33476;DHT22;19814;48.224;11.422;2023-04-06T12:35:35;19.30;33.70
33476;DHT22;19814;48.224;11.422;2023-04-06T12:38:02;19.30;34.40
33476;DHT22;19814;48.224;11.422;2023-04-06T12:40:27;18.90;32.50
33476;DHT22;19814;48.224;11.422;2023-04-06T12:42:53;18.00;34.10
33476;DHT22;19814;48.224;11.422;2023-04-06T12:45:18;17.40;36.70
33476;DHT22;19814;48.224;11.422;2023-04-06T12:47:44;16.90;39.30
33476;DHT22;19814;48.224;11.422;2023-04-06T12:50:09;16.80;37.20
33476;DHT22;19814;48.224;11.422;2023-04-06T12:52:35;16.90;37.20
33476;DHT22;19814;48.224;11.422;2023-04-06T12:55:02;16.60;38.40
33476;DHT22;19814;48.224;11.422;2023-04-06T12:57:28;16.40;36.70
33476;DHT22;19814;48.224;11.422;2023-04-06T12:59:54;15.70;37.30
33476;DHT22;19814;48.224;11.422;2023-04-06T13:02:20;15.70;41.80
33476;DHT22;19814;48.224;11.422;2023-04-06T13:04:46;15.60;39.60
33476;DHT22;19814;48.224;11.422;2023-04-06T13:07:13;15.60;38.20
33476;DHT22;19814;48.224;11.422;2023-04-06T13:09:39;15.50;40.20
33476;DHT22;19814;48.224;11.422;2023-04-06T13:12:05;15.40;41.70
33476;DHT22;19814;48.224;11.422;2023-04-06T13:14:30;15.40;42.60
33476;DHT22;19814;48.224;11.422;2023-04-06T13:16:57;15.50;42.30
33476;DHT22;19814;48.224;11.422;2023-04-06T13:19:22;15.60;40.90
33476;DHT22;19814;48.224;11.422;2023-04-06T13:21:48;15.10;40.10
33476;DHT22;19814;48.224;11.422;2023-04-06T13:24:14;14.40;41.10
33476;DHT22;19814;48.224;11.422;2023-04-06T13:26:39;14.20;41.10
33476;DHT22;19814;48.224;11.422;2023-04-06T13:29:05;14.10;43.10
33476;DHT22;19814;48.224;11.422;2023-04-06T13:31:30;14.00;42.20
33476;DHT22;19814;48.224;11.422;2023-04-06T13:33:56;14.20;42.70
33476;DHT22;19814;48.224;11.422;2023-04-06T13:36:22;14.50;41.50
33476;DHT22;19814;48.224;11.422;2023-04-06T13:38:47;14.60;41.30
33476;DHT22;19814;48.224;11.422;2023-04-06T13:41:23;14.60;42.80
33476;DHT22;19814;48.224;11.422;2023-04-06T13:43:50;14.30;41.20
33476;DHT22;19814;48.224;11.422;2023-04-06T13:46:16;14.30;41.80
33476;DHT22;19814;48.224;11.422;2023-04-06T13:48:42;14.30;40.50
33476;DHT22;19814;48.224;11.422;2023-04-06T13:51:12;14.40;40.10
33476;DHT22;19814;48.224;11.422;2023-04-06T13:53:39;14.50;39.10
33476;DHT22;19814;48.224;11.422;2023-04-06T13:56:05;14.40;40.10
33476;DHT22;19814;48.224;11.422;2023-04-06T13:58:31;14.40;41.50
33476;DHT22;19814;48.224;11.422;2023-04-06T14:01:06;14.60;42.80
33476;DHT22;19814;48.224;11.422;2023-04-06T14:03:33;14.80;40.10
33476;DHT22;19814;48.224;11.422;2023-04-06T14:05:58;14.80;39.90
33476;DHT22;19814;48.224;11.422;2023-04-06T14:08:24;14.70;40.50
33476;DHT22;19814;48.224;11.422;2023-04-06T14:10:50;14.70;40.20
33476;DHT22;19814;48.224;11.422;2023-04-06T14:13:16;14.60;40.40
33476;DHT22;19814;48.224;11.422;2023-04-06T14:15:42;14.60;41.50
33476;DHT22;19814;48.224;11.422;2023-04-06T14:18:08;14.40;39.20
33476;DHT22;19814;48.224;11.422;2023-04-06T14:20:34;14.20;39.80
33476;DHT22;19814;48.224;11.422;2023-04-06T14:23:00;14.10;41.60
33476;DHT22;19814;48.224;11.422;2023-04-06T14:25:26;14.00;40.70
33476;DHT22;19814;48.224;11.422;2023-04-06T14:27:52;14.00;40.10
33476;DHT22;19814;48.224;11.422;2023-04-06T14:30:17;14.10;40.20
33476;DHT22;19814;48.224;11.422;2023-04-06T14:32:43;14.30;40.90
33476;DHT22;19814;48.224;11.422;2023-04-06T14:35:09;14.40;40.70
33476;DHT22;19814;48.224;11.422;2023-04-06T14:37:35;14.50;39.70
33476;DHT22;19814;48.224;11.422;2023-04-06T14:40:01;14.60;38.90
33476;DHT22;19814;48.224;11.422;2023-04-06T14:42:30;14.60;38.70
33476;DHT22;19814;48.224;11.422;2023-04-06T14:44:59;14.50;38.40
33476;DHT22;19814;48.224;11.422;2023-04-06T14:47:25;14.20;40.10
33476;DHT22;19814;48.224;11.422;2023-04-06T14:49:51;13.90;41.50
33476;DHT22;19814;48.224;11.422;2023-04-06T14:52:17;13.70;41.10
33476;DHT22;19814;48.224;11.422;2023-04-06T14:54:43;13.60;41.80
33476;DHT22;19814;48.224;11.422;2023-04-06T14:57:09;13.70;42.20
33476;DHT22;19814;48.224;11.422;2023-04-06T14:59:34;13.70;44.50
33476;DHT22;19814;48.224;11.422;2023-04-06T15:02:01;13.80;42.80
33476;DHT22;19814;48.224;11.422;2023-04-06T15:04:28;13.70;43.20
33476;DHT22;19814;48.224;11.422;2023-04-06T15:06:54;13.60;42.30
33476;DHT22;19814;48.224;11.422;2023-04-06T15:09:19;13.40;41.70
33476;DHT22;19814;48.224;11.422;2023-04-06T15:11:45;13.20;41.80
33476;DHT22;19814;48.224;11.422;2023-04-06T15:14:10;13.10;43.10
33476;DHT22;19814;48.224;11.422;2023-04-06T15:16:36;12.90;43.10
33476;DHT22;19814;48.224;11.422;2023-04-06T15:19:01;12.90;42.20
33476;DHT22;19814;48.224;11.422;2023-04-06T15:21:27;13.00;41.60
33476;DHT22;19814;48.224;11.422;2023-04-06T15:23:53;13.00;43.00